sensor_id;sensor_type;location;lat;lon;timestamp;P1;durP1;ratioP1;P2;durP2;ratioP2
8580;SDS011;4328;48.622;9.230;2023-02-15T00:01:13;16.60;;;11.13;;
8580;SDS011;4328;48.622;9.230;2023-02-15T00:03:41;15.67;;;10.97;;
8580;SDS011;4328;48.622;9.230;2023-02-15T00:06:08;15.50;;;11.00;;
8580;SDS011;4328;48.622;9.230;2023-02-15T00:08:34;15.50;;;10.97;;
8580;SDS011;4328;48.622;9.230;2023-02-15T00:11:05;14.77;;;11.13;;
8580;SDS011;4328;48.622;9.230;2023-02-15T00:13:32;15.93;;;11.00;;
8580;SDS011;4328;48.622;9.230;2023-02-15T00:16:01;16.87;;;11.50;;
8580;SDS011;4328;48.622;9.230;2023-02-15T00:18:28;15.17;;;10.80;;
8580;SDS011;4328;48.622;9.230;2023-02-15T00:20:56;14.10;;;10.53;;
8580;SDS011;4328;48.622;9.230;2023-02-15T00:23:22;13.90;;;10.23;;
8580;SDS011;4328;48.622;9.230;2023-02-15T00:25:49;14.87;;;10.63;;
8580;SDS011;4328;48.622;9.230;2023-02-15T00:28:16;13.90;;;10.40;;
8580;SDS011;4328;48.622;9.230;2023-02-15T00:30:42;13.97;;;11.07;;
8580;SDS011;4328;48.622;9.230;2023-02-15T00:33:09;13.57;;;10.07;;
8580;SDS011;4328;48.622;9.230;2023-02-15T00:35:35;14.77;;;11.00;;
8580;SDS011;4328;48.622;9.230;2023-02-15T00:38:03;14.93;;;10.03;;
8580;SDS011;4328;48.622;9.230;2023-02-15T00:40:30;14.50;;;10.43;;
8580;SDS011;4328;48.622;9.230;2023-02-15T00:42:57;16.30;;;10.77;;
8580;SDS011;4328;48.622;9.230;2023-02-15T00:45:23;17.50;;;10.93;;
8580;SDS011;4328;48.622;9.230;2023-02-15T00:47:50;13.63;;;10.33;;
8580;SDS011;4328;48.622;9.230;2023-02-15T00:50:16;13.40;;;11.00;;
8580;SDS011;4328;48.622;9.230;2023-02-15T00:52:43;14.30;;;10.00;;
8580;SDS011;4328;48.622;9.230;2023-02-15T00:55:11;17.57;;;10.70;;
8580;SDS011;4328;48.622;9.230;2023-02-15T00:57:37;14.77;;;11.23;;
8580;SDS011;4328;48.622;9.230;2023-02-15T01:00:05;15.10;;;10.37;;
8580;SDS011;4328;48.622;9.230;2023-02-15T01:02:31;15.67;;;11.13;;
8580;SDS011;4328;48.622;9.230;2023-02-15T01:04:58;16.63;;;10.73;;
8580;SDS011;4328;48.622;9.230;2023-02-15T01:07:24;13.93;;;11.30;;
8580;SDS011;4328;48.622;9.230;2023-02-15T01:09:51;16.20;;;11.00;;
8580;SDS011;4328;48.622;9.230;2023-02-15T01:12:19;13.20;;;9.90;;
8580;SDS011;4328;48.622;9.230;2023-02-15T01:14:46;15.27;;;10.77;;
8580;SDS011;4328;48.622;9.230;2023-02-15T01:17:13;18.17;;;11.77;;
8580;SDS011;4328;48.622;9.230;2023-02-15T01:19:39;14.50;;;11.23;;
8580;SDS011;4328;48.622;9.230;2023-02-15T01:22:05;18.53;;;11.67;;
8580;SDS011;4328;48.622;9.230;2023-02-15T01:24:32;16.50;;;10.90;;
8580;SDS011;4328;48.622;9.230;2023-02-15T01:26:58;15.73;;;11.50;;
8580;SDS011;4328;48.622;9.230;2023-02-15T01:29:26;18.40;;;11.07;;
8580;SDS011;4328;48.622;9.230;2023-02-15T01:31:52;16.40;;;10.77;;
8580;SDS011;4328;48.622;9.230;2023-02-15T01:34:19;13.60;;;10.60;;
8580;SDS011;4328;48.622;9.230;2023-02-15T01:36:45;15.37;;;10.40;;
8580;SDS011;4328;48.622;9.230;2023-02-15T01:39:11;14.03;;;10.40;;
8580;SDS011;4328;48.622;9.230;2023-02-15T01:41:38;14.90;;;10.70;;
8580;SDS011;4328;48.622;9.230;2023-02-15T01:46:48;14.90;;;10.50;;
8580;SDS011;4328;48.622;9.230;2023-02-15T01:49:17;14.73;;;11.17;;
8580;SDS011;4328;48.622;9.230;2023-02-15T01:51:45;16.00;;;11.40;;
8580;SDS011;4328;48.622;9.230;2023-02-15T01:54:15;15.47;;;10.43;;
8580;SDS011;4328;48.622;9.230;2023-02-15T01:56:44;17.83;;;10.63;;
8580;SDS011;4328;48.622;9.230;2023-02-15T01:59:11;15.37;;;11.33;;
8580;SDS011;4328;48.622;9.230;2023-02-15T02:01:39;17.80;;;10.83;;
8580;SDS011;4328;48.622;9.230;2023-02-15T02:04:08;17.20;;;10.93;;
8580;SDS011;4328;48.622;9.230;2023-02-15T02:06:37;15.87;;;10.77;;
8580;SDS011;4328;48.622;9.230;2023-02-15T02:09:04;15.60;;;10.23;;
8580;SDS011;4328;48.622;9.230;2023-02-15T02:11:30;12.90;;;10.03;;
8580;SDS011;4328;48.622;9.230;2023-02-15T02:13:57;14.87;;;10.47;;
8580;SDS011;4328;48.622;9.230;2023-02-15T02:16:24;14.67;;;10.60;;
8580;SDS011;4328;48.622;9.230;2023-02-15T02:18:58;14.83;;;10.73;;
8580;SDS011;4328;48.622;9.230;2023-02-15T02:21:56;16.47;;;11.70;;
8580;SDS011;4328;48.622;9.230;2023-02-15T02:24:44;14.37;;;10.00;;
8580;SDS011;4328;48.622;9.230;2023-02-15T02:27:22;17.20;;;11.50;;
8580;SDS011;4328;48.622;9.230;2023-02-15T02:29:55;13.63;;;9.70;;
8580;SDS011;4328;48.622;9.230;2023-02-15T02:32:32;14.77;;;10.73;;
8580;SDS011;4328;48.622;9.230;2023-02-15T02:35:06;13.33;;;10.27;;
8580;SDS011;4328;48.622;9.230;2023-02-15T02:37:37;15.40;;;11.07;;
8580;SDS011;4328;48.622;9.230;2023-02-15T02:40:08;14.50;;;10.03;;
8580;SDS011;4328;48.622;9.230;2023-02-15T02:42:38;14.10;;;10.73;;
8580;SDS011;4328;48.622;9.230;2023-02-15T02:45:06;14.17;;;10.30;;
8580;SDS011;4328;48.622;9.230;2023-02-15T02:47:35;13.70;;;10.53;;
8580;SDS011;4328;48.622;9.230;2023-02-15T02:50:04;12.10;;;9.67;;
8580;SDS011;4328;48.622;9.230;2023-02-15T02:52:37;15.27;;;10.23;;
8580;SDS011;4328;48.622;9.230;2023-02-15T02:55:05;13.27;;;10.00;;
8580;SDS011;4328;48.622;9.230;2023-02-15T02:57:32;15.10;;;10.00;;
8580;SDS011;4328;48.622;9.230;2023-02-15T03:00:00;14.27;;;9.87;;
8580;SDS011;4328;48.622;9.230;2023-02-15T03:02:29;14.80;;;10.50;;
8580;SDS011;4328;48.622;9.230;2023-02-15T03:04:59;13.97;;;10.40;;
8580;SDS011;4328;48.622;9.230;2023-02-15T03:07:31;15.30;;;9.80;;
8580;SDS011;4328;48.622;9.230;2023-02-15T03:10:03;16.60;;;10.57;;
8580;SDS011;4328;48.622;9.230;2023-02-15T03:12:31;13.77;;;10.20;;
8580;SDS011;4328;48.622;9.230;2023-02-15T03:14:59;18.27;;;11.10;;
8580;SDS011;4328;48.622;9.230;2023-02-15T03:17:28;15.03;;;10.20;;
8580;SDS011;4328;48.622;9.230;2023-02-15T03:19:57;13.47;;;9.47;;
8580;SDS011;4328;48.622;9.230;2023-02-15T03:22:25;14.53;;;10.37;;
8580;SDS011;4328;48.622;9.230;2023-02-15T03:24:53;14.23;;;10.47;;
8580;SDS011;4328;48.622;9.230;2023-02-15T03:27:24;13.27;;;9.90;;
8580;SDS011;4328;48.622;9.230;2023-02-15T03:29:52;16.50;;;10.90;;
8580;SDS011;4328;48.622;9.230;2023-02-15T03:32:19;17.60;;;10.90;;
8580;SDS011;4328;48.622;9.230;2023-02-15T03:34:46;14.67;;;10.60;;
8580;SDS011;4328;48.622;9.230;2023-02-15T03:37:13;14.97;;;9.70;;
8580;SDS011;4328;48.622;9.230;2023-02-15T03:39:42;14.97;;;10.27;;
8580;SDS011;4328;48.622;9.230;2023-02-15T03:42:11;16.50;;;9.87;;
8580;SDS011;4328;48.622;9.230;2023-02-15T03:44:41;14.63;;;9.70;;
8580;SDS011;4328;48.622;9.230;2023-02-15T03:47:11;14.30;;;9.97;;
8580;SDS011;4328;48.622;9.230;2023-02-15T03:49:40;13.80;;;9.37;;
8580;SDS011;4328;48.622;9.230;2023-02-15T03:52:08;16.20;;;9.83;;
8580;SDS011;4328;48.622;9.230;2023-02-15T03:54:35;15.23;;;11.00;;
8580;SDS011;4328;48.622;9.230;2023-02-15T03:57:13;14.10;;;10.40;;
8580;SDS011;4328;48.622;9.230;2023-02-15T03:59:59;13.57;;;9.83;;
8580;SDS011;4328;48.622;9.230;2023-02-15T04:02:45;14.00;;;9.67;;
8580;SDS011;4328;48.622;9.230;2023-02-15T04:05:13;13.43;;;9.87;;
8580;SDS011;4328;48.622;9.230;2023-02-15T04:07:40;13.60;;;10.60;;
8580;SDS011;4328;48.622;9.230;2023-02-15T04:10:06;14.00;;;10.77;;
8580;SDS011;4328;48.622;9.230;2023-02-15T04:12:50;14.53;;;10.13;;
8580;SDS011;4328;48.622;9.230;2023-02-15T04:15:18;14.53;;;9.87;;
8580;SDS011;4328;48.622;9.230;2023-02-15T04:18:13;14.70;;;10.53;;
8580;SDS011;4328;48.622;9.230;2023-02-15T04:20:42;12.40;;;9.97;;
8580;SDS011;4328;48.622;9.230;2023-02-15T04:23:26;15.00;;;10.37;;
8580;SDS011;4328;48.622;9.230;2023-02-15T04:26:10;13.37;;;10.00;;
8580;SDS011;4328;48.622;9.230;2023-02-15T04:28:36;16.27;;;10.33;;
8580;SDS011;4328;48.622;9.230;2023-02-15T04:31:04;15.47;;;10.47;;
8580;SDS011;4328;48.622;9.230;2023-02-15T04:33:30;13.93;;;10.43;;
8580;SDS011;4328;48.622;9.230;2023-02-15T04:35:57;15.57;;;10.27;;
8580;SDS011;4328;48.622;9.230;2023-02-15T04:38:23;15.50;;;9.93;;
8580;SDS011;4328;48.622;9.230;2023-02-15T04:40:50;12.43;;;9.53;;
8580;SDS011;4328;48.622;9.230;2023-02-15T04:43:17;12.27;;;10.37;;
8580;SDS011;4328;48.622;9.230;2023-02-15T04:45:47;13.07;;;10.10;;
8580;SDS011;4328;48.622;9.230;2023-02-15T04:48:14;14.43;;;10.30;;
8580;SDS011;4328;48.622;9.230;2023-02-15T04:50:41;16.20;;;10.47;;
8580;SDS011;4328;48.622;9.230;2023-02-15T04:53:07;13.87;;;10.33;;
8580;SDS011;4328;48.622;9.230;2023-02-15T04:55:34;14.70;;;11.03;;
8580;SDS011;4328;48.622;9.230;2023-02-15T04:58:00;15.47;;;10.43;;
8580;SDS011;4328;48.622;9.230;2023-02-15T05:00:26;15.33;;;10.53;;
8580;SDS011;4328;48.622;9.230;2023-02-15T05:02:53;14.83;;;10.67;;
8580;SDS011;4328;48.622;9.230;2023-02-15T05:05:21;15.73;;;11.10;;
8580;SDS011;4328;48.622;9.230;2023-02-15T05:07:47;14.93;;;10.77;;
8580;SDS011;4328;48.622;9.230;2023-02-15T05:10:14;17.03;;;11.43;;
8580;SDS011;4328;48.622;9.230;2023-02-15T05:12:40;16.73;;;10.97;;
8580;SDS011;4328;48.622;9.230;2023-02-15T05:15:07;15.57;;;10.80;;
8580;SDS011;4328;48.622;9.230;2023-02-15T05:17:33;16.97;;;10.73;;
8580;SDS011;4328;48.622;9.230;2023-02-15T05:20:00;16.73;;;11.13;;
8580;SDS011;4328;48.622;9.230;2023-02-15T05:22:28;14.87;;;10.63;;
8580;SDS011;4328;48.622;9.230;2023-02-15T05:24:54;16.87;;;11.60;;
8580;SDS011;4328;48.622;9.230;2023-02-15T05:27:38;18.03;;;11.93;;
8580;SDS011;4328;48.622;9.230;2023-02-15T05:30:22;18.43;;;12.50;;
8580;SDS011;4328;48.622;9.230;2023-02-15T05:32:48;19.10;;;12.43;;
8580;SDS011;4328;48.622;9.230;2023-02-15T05:35:15;19.50;;;12.80;;
8580;SDS011;4328;48.622;9.230;2023-02-15T05:37:42;17.73;;;13.03;;
8580;SDS011;4328;48.622;9.230;2023-02-15T05:40:09;17.60;;;11.50;;
8580;SDS011;4328;48.622;9.230;2023-02-15T05:42:36;22.13;;;12.03;;
8580;SDS011;4328;48.622;9.230;2023-02-15T05:45:02;20.33;;;12.30;;
8580;SDS011;4328;48.622;9.230;2023-02-15T05:47:30;18.97;;;11.60;;
8580;SDS011;4328;48.622;9.230;2023-02-15T05:49:57;19.43;;;12.00;;
8580;SDS011;4328;48.622;9.230;2023-02-15T05:52:23;15.40;;;11.37;;
8580;SDS011;4328;48.622;9.230;2023-02-15T05:54:51;17.13;;;12.03;;
8580;SDS011;4328;48.622;9.230;2023-02-15T05:57:17;18.30;;;12.27;;
8580;SDS011;4328;48.622;9.230;2023-02-15T05:59:43;15.73;;;11.57;;
8580;SDS011;4328;48.622;9.230;2023-02-15T06:02:10;18.33;;;12.17;;
8580;SDS011;4328;48.622;9.230;2023-02-15T06:04:36;15.87;;;11.87;;
8580;SDS011;4328;48.622;9.230;2023-02-15T06:07:02;18.07;;;11.93;;
8580;SDS011;4328;48.622;9.230;2023-02-15T06:09:29;14.90;;;11.07;;
8580;SDS011;4328;48.622;9.230;2023-02-15T06:11:57;14.40;;;11.47;;
8580;SDS011;4328;48.622;9.230;2023-02-15T06:14:23;17.17;;;11.87;;
8580;SDS011;4328;48.622;9.230;2023-02-15T06:16:49;18.63;;;12.47;;
8580;SDS011;4328;48.622;9.230;2023-02-15T06:19:16;18.40;;;12.47;;
8580;SDS011;4328;48.622;9.230;2023-02-15T06:21:43;18.07;;;12.73;;
8580;SDS011;4328;48.622;9.230;2023-02-15T06:24:09;17.43;;;12.20;;
8580;SDS011;4328;48.622;9.230;2023-02-15T06:26:36;19.93;;;12.30;;
8580;SDS011;4328;48.622;9.230;2023-02-15T06:29:03;17.33;;;11.00;;
8580;SDS011;4328;48.622;9.230;2023-02-15T06:31:30;19.17;;;12.33;;
8580;SDS011;4328;48.622;9.230;2023-02-15T06:33:56;17.40;;;13.20;;
8580;SDS011;4328;48.622;9.230;2023-02-15T06:36:26;18.53;;;11.53;;
8580;SDS011;4328;48.622;9.230;2023-02-15T06:38:52;17.53;;;11.93;;
8580;SDS011;4328;48.622;9.230;2023-02-15T06:41:18;17.90;;;12.70;;
8580;SDS011;4328;48.622;9.230;2023-02-15T06:43:45;20.43;;;13.07;;
8580;SDS011;4328;48.622;9.230;2023-02-15T06:46:13;18.77;;;12.97;;
8580;SDS011;4328;48.622;9.230;2023-02-15T06:48:39;22.40;;;12.40;;
8580;SDS011;4328;48.622;9.230;2023-02-15T06:51:05;18.93;;;13.30;;
8580;SDS011;4328;48.622;9.230;2023-02-15T06:53:32;22.03;;;13.27;;
8580;SDS011;4328;48.622;9.230;2023-02-15T06:56:01;18.90;;;12.30;;
8580;SDS011;4328;48.622;9.230;2023-02-15T06:58:31;19.57;;;12.23;;
8580;SDS011;4328;48.622;9.230;2023-02-15T07:00:57;18.90;;;13.07;;
8580;SDS011;4328;48.622;9.230;2023-02-15T07:03:25;17.80;;;12.07;;
8580;SDS011;4328;48.622;9.230;2023-02-15T07:05:53;20.00;;;12.53;;
8580;SDS011;4328;48.622;9.230;2023-02-15T07:08:20;18.93;;;12.93;;
8580;SDS011;4328;48.622;9.230;2023-02-15T07:10:46;19.00;;;13.33;;
8580;SDS011;4328;48.622;9.230;2023-02-15T07:13:12;19.27;;;12.17;;
8580;SDS011;4328;48.622;9.230;2023-02-15T07:15:38;22.47;;;17.60;;
8580;SDS011;4328;48.622;9.230;2023-02-15T07:18:04;15.37;;;11.53;;
8580;SDS011;4328;48.622;9.230;2023-02-15T07:20:32;15.57;;;11.73;;
8580;SDS011;4328;48.622;9.230;2023-02-15T07:23:00;16.50;;;11.60;;
8580;SDS011;4328;48.622;9.230;2023-02-15T07:25:27;17.80;;;11.90;;
8580;SDS011;4328;48.622;9.230;2023-02-15T07:27:55;16.40;;;12.13;;
8580;SDS011;4328;48.622;9.230;2023-02-15T07:30:21;15.50;;;11.67;;
8580;SDS011;4328;48.622;9.230;2023-02-15T07:32:48;16.87;;;12.47;;
8580;SDS011;4328;48.622;9.230;2023-02-15T07:35:33;17.50;;;12.63;;
8580;SDS011;4328;48.622;9.230;2023-02-15T07:37:59;17.83;;;12.50;;
8580;SDS011;4328;48.622;9.230;2023-02-15T07:40:26;19.20;;;12.90;;
8580;SDS011;4328;48.622;9.230;2023-02-15T07:42:52;18.27;;;12.40;;
8580;SDS011;4328;48.622;9.230;2023-02-15T07:45:19;17.70;;;12.90;;
8580;SDS011;4328;48.622;9.230;2023-02-15T07:47:46;19.67;;;13.20;;
8580;SDS011;4328;48.622;9.230;2023-02-15T07:50:12;16.20;;;13.10;;
8580;SDS011;4328;48.622;9.230;2023-02-15T07:52:40;16.00;;;13.17;;
8580;SDS011;4328;48.622;9.230;2023-02-15T07:55:06;17.60;;;13.07;;
8580;SDS011;4328;48.622;9.230;2023-02-15T07:57:33;16.70;;;13.33;;
8580;SDS011;4328;48.622;9.230;2023-02-15T08:00:00;17.90;;;12.67;;
8580;SDS011;4328;48.622;9.230;2023-02-15T08:02:26;16.80;;;12.37;;
8580;SDS011;4328;48.622;9.230;2023-02-15T08:04:53;16.80;;;12.67;;
8580;SDS011;4328;48.622;9.230;2023-02-15T08:07:20;16.30;;;12.47;;
8580;SDS011;4328;48.622;9.230;2023-02-15T08:09:48;17.70;;;12.43;;
8580;SDS011;4328;48.622;9.230;2023-02-15T08:12:14;19.20;;;12.83;;
8580;SDS011;4328;48.622;9.230;2023-02-15T08:14:40;17.20;;;12.07;;
8580;SDS011;4328;48.622;9.230;2023-02-15T08:17:07;16.80;;;11.97;;
8580;SDS011;4328;48.622;9.230;2023-02-15T08:19:33;16.03;;;12.13;;
8580;SDS011;4328;48.622;9.230;2023-02-15T08:22:01;15.17;;;12.50;;
8580;SDS011;4328;48.622;9.230;2023-02-15T08:24:28;13.50;;;11.60;;
8580;SDS011;4328;48.622;9.230;2023-02-15T08:26:56;15.53;;;12.70;;
8580;SDS011;4328;48.622;9.230;2023-02-15T08:29:24;13.50;;;10.73;;
8580;SDS011;4328;48.622;9.230;2023-02-15T08:31:54;14.97;;;10.93;;
8580;SDS011;4328;48.622;9.230;2023-02-15T08:34:23;14.77;;;11.07;;
8580;SDS011;4328;48.622;9.230;2023-02-15T08:36:50;12.60;;;10.63;;
8580;SDS011;4328;48.622;9.230;2023-02-15T08:39:17;13.87;;;10.63;;
8580;SDS011;4328;48.622;9.230;2023-02-15T08:41:44;12.60;;;10.50;;
8580;SDS011;4328;48.622;9.230;2023-02-15T08:44:12;12.17;;;10.60;;
8580;SDS011;4328;48.622;9.230;2023-02-15T08:46:39;12.00;;;10.73;;
8580;SDS011;4328;48.622;9.230;2023-02-15T08:49:06;13.13;;;11.53;;
8580;SDS011;4328;48.622;9.230;2023-02-15T08:51:33;12.40;;;11.10;;
8580;SDS011;4328;48.622;9.230;2023-02-15T08:54:01;12.77;;;11.53;;
8580;SDS011;4328;48.622;9.230;2023-02-15T08:56:29;13.20;;;11.90;;
8580;SDS011;4328;48.622;9.230;2023-02-15T08:58:56;13.50;;;12.20;;
8580;SDS011;4328;48.622;9.230;2023-02-15T09:01:25;12.60;;;11.30;;
8580;SDS011;4328;48.622;9.230;2023-02-15T09:03:54;13.73;;;12.20;;
8580;SDS011;4328;48.622;9.230;2023-02-15T09:06:21;14.70;;;13.30;;
8580;SDS011;4328;48.622;9.230;2023-02-15T09:08:47;14.73;;;12.97;;
8580;SDS011;4328;48.622;9.230;2023-02-15T09:11:15;13.87;;;12.47;;
8580;SDS011;4328;48.622;9.230;2023-02-15T09:13:47;13.90;;;12.50;;
8580;SDS011;4328;48.622;9.230;2023-02-15T09:16:14;13.23;;;11.80;;
8580;SDS011;4328;48.622;9.230;2023-02-15T09:18:43;13.63;;;12.23;;
8580;SDS011;4328;48.622;9.230;2023-02-15T09:21:10;14.43;;;12.93;;
8580;SDS011;4328;48.622;9.230;2023-02-15T09:23:38;13.53;;;12.20;;
8580;SDS011;4328;48.622;9.230;2023-02-15T09:26:05;15.03;;;13.57;;
8580;SDS011;4328;48.622;9.230;2023-02-15T09:28:32;13.87;;;12.37;;
8580;SDS011;4328;48.622;9.230;2023-02-15T09:31:08;13.90;;;12.43;;
8580;SDS011;4328;48.622;9.230;2023-02-15T09:33:35;13.97;;;12.30;;
8580;SDS011;4328;48.622;9.230;2023-02-15T09:36:03;12.77;;;11.57;;
8580;SDS011;4328;48.622;9.230;2023-02-15T09:38:30;12.97;;;11.80;;
8580;SDS011;4328;48.622;9.230;2023-02-15T09:41:05;15.37;;;13.77;;
8580;SDS011;4328;48.622;9.230;2023-02-15T09:43:38;14.83;;;13.33;;
8580;SDS011;4328;48.622;9.230;2023-02-15T09:46:13;15.17;;;13.67;;
8580;SDS011;4328;48.622;9.230;2023-02-15T09:48:42;14.70;;;13.33;;
8580;SDS011;4328;48.622;9.230;2023-02-15T09:51:22;14.83;;;13.50;;
8580;SDS011;4328;48.622;9.230;2023-02-15T09:53:58;15.03;;;13.53;;
8580;SDS011;4328;48.622;9.230;2023-02-15T09:56:31;13.50;;;12.30;;
8580;SDS011;4328;48.622;9.230;2023-02-15T09:59:03;14.37;;;12.87;;
8580;SDS011;4328;48.622;9.230;2023-02-15T10:01:32;16.60;;;14.90;;
8580;SDS011;4328;48.622;9.230;2023-02-15T10:04:05;15.37;;;13.60;;
8580;SDS011;4328;48.622;9.230;2023-02-15T10:06:38;15.20;;;13.70;;
8580;SDS011;4328;48.622;9.230;2023-02-15T10:09:17;13.97;;;12.67;;
8580;SDS011;4328;48.622;9.230;2023-02-15T10:11:51;13.67;;;12.47;;
8580;SDS011;4328;48.622;9.230;2023-02-15T10:14:32;15.00;;;13.50;;
8580;SDS011;4328;48.622;9.230;2023-02-15T10:17:06;14.00;;;11.83;;
8580;SDS011;4328;48.622;9.230;2023-02-15T10:19:37;13.32;;;12.13;;
8580;SDS011;4328;48.622;9.230;2023-02-15T10:22:11;13.65;;;12.30;;
8580;SDS011;4328;48.622;9.230;2023-02-15T10:24:43;19.70;;;16.60;;
8580;SDS011;4328;48.622;9.230;2023-02-15T10:27:12;22.15;;;19.95;;
8580;SDS011;4328;48.622;9.230;2023-02-15T10:29:40;14.98;;;13.57;;
8580;SDS011;4328;48.622;9.230;2023-02-15T10:32:13;13.07;;;11.88;;
8580;SDS011;4328;48.622;9.230;2023-02-15T10:34:43;12.95;;;11.65;;
8580;SDS011;4328;48.622;9.230;2023-02-15T10:40:00;15.63;;;10.90;;
8580;SDS011;4328;48.622;9.230;2023-02-15T10:42:29;12.57;;;11.48;;
8580;SDS011;4328;48.622;9.230;2023-02-15T10:45:02;13.77;;;12.60;;
8580;SDS011;4328;48.622;9.230;2023-02-15T10:47:37;12.57;;;11.48;;
8580;SDS011;4328;48.622;9.230;2023-02-15T10:50:20;17.13;;;15.52;;
8580;SDS011;4328;48.622;9.230;2023-02-15T10:52:54;11.90;;;10.88;;
8580;SDS011;4328;48.622;9.230;2023-02-15T10:55:28;10.90;;;9.90;;
8580;SDS011;4328;48.622;9.230;2023-02-15T10:57:57;12.05;;;10.85;;
8580;SDS011;4328;48.622;9.230;2023-02-15T11:00:26;23.77;;;20.65;;
8580;SDS011;4328;48.622;9.230;2023-02-15T11:03:02;11.20;;;10.20;;
8580;SDS011;4328;48.622;9.230;2023-02-15T11:05:35;13.90;;;12.57;;
8580;SDS011;4328;48.622;9.230;2023-02-15T11:08:03;10.63;;;9.65;;
8580;SDS011;4328;48.622;9.230;2023-02-15T11:10:33;11.25;;;10.25;;
8580;SDS011;4328;48.622;9.230;2023-02-15T11:13:02;10.77;;;9.75;;
8580;SDS011;4328;48.622;9.230;2023-02-15T11:15:30;11.07;;;9.98;;
8580;SDS011;4328;48.622;9.230;2023-02-15T11:18:00;11.38;;;10.07;;
8580;SDS011;4328;48.622;9.230;2023-02-15T11:20:28;11.15;;;10.15;;
8580;SDS011;4328;48.622;9.230;2023-02-15T11:22:56;12.10;;;9.98;;
8580;SDS011;4328;48.622;9.230;2023-02-15T11:25:23;12.23;;;10.93;;
8580;SDS011;4328;48.622;9.230;2023-02-15T11:27:51;13.40;;;12.10;;
8580;SDS011;4328;48.622;9.230;2023-02-15T11:30:19;10.88;;;9.95;;
8580;SDS011;4328;48.622;9.230;2023-02-15T11:32:47;10.00;;;9.10;;
8580;SDS011;4328;48.622;9.230;2023-02-15T11:35:18;10.85;;;9.85;;
8580;SDS011;4328;48.622;9.230;2023-02-15T11:37:46;10.30;;;8.95;;
8580;SDS011;4328;48.622;9.230;2023-02-15T11:40:15;10.57;;;8.93;;
8580;SDS011;4328;48.622;9.230;2023-02-15T11:42:44;12.98;;;11.77;;
8580;SDS011;4328;48.622;9.230;2023-02-15T11:45:17;16.77;;;15.13;;
8580;SDS011;4328;48.622;9.230;2023-02-15T11:47:45;14.80;;;13.35;;
8580;SDS011;4328;48.622;9.230;2023-02-15T11:50:12;14.95;;;13.63;;
8580;SDS011;4328;48.622;9.230;2023-02-15T11:52:41;12.32;;;11.18;;
8580;SDS011;4328;48.622;9.230;2023-02-15T11:55:19;14.27;;;12.88;;
8580;SDS011;4328;48.622;9.230;2023-02-15T11:57:47;11.55;;;10.38;;
8580;SDS011;4328;48.622;9.230;2023-02-15T12:00:20;11.25;;;10.32;;
8580;SDS011;4328;48.622;9.230;2023-02-15T12:02:52;10.65;;;9.65;;
8580;SDS011;4328;48.622;9.230;2023-02-15T12:05:20;10.63;;;9.63;;
8580;SDS011;4328;48.622;9.230;2023-02-15T12:07:48;10.18;;;9.13;;
8580;SDS011;4328;48.622;9.230;2023-02-15T12:10:17;10.32;;;9.23;;
8580;SDS011;4328;48.622;9.230;2023-02-15T12:12:45;11.05;;;9.93;;
8580;SDS011;4328;48.622;9.230;2023-02-15T12:15:12;11.60;;;10.60;;
8580;SDS011;4328;48.622;9.230;2023-02-15T12:17:40;9.95;;;8.95;;
8580;SDS011;4328;48.622;9.230;2023-02-15T12:20:20;9.57;;;8.75;;
8580;SDS011;4328;48.622;9.230;2023-02-15T12:22:49;9.93;;;9.02;;
8580;SDS011;4328;48.622;9.230;2023-02-15T12:25:20;9.90;;;8.55;;
8580;SDS011;4328;48.622;9.230;2023-02-15T12:27:46;8.85;;;8.05;;
8580;SDS011;4328;48.622;9.230;2023-02-15T12:30:15;9.00;;;8.20;;
8580;SDS011;4328;48.622;9.230;2023-02-15T12:32:47;9.05;;;8.23;;
8580;SDS011;4328;48.622;9.230;2023-02-15T12:35:17;9.07;;;8.18;;
8580;SDS011;4328;48.622;9.230;2023-02-15T12:37:51;9.30;;;8.40;;
8580;SDS011;4328;48.622;9.230;2023-02-15T12:40:19;9.65;;;8.60;;
8580;SDS011;4328;48.622;9.230;2023-02-15T12:42:46;8.75;;;7.95;;
8580;SDS011;4328;48.622;9.230;2023-02-15T12:45:21;8.45;;;7.65;;
8580;SDS011;4328;48.622;9.230;2023-02-15T12:47:49;8.52;;;7.63;;
8580;SDS011;4328;48.622;9.230;2023-02-15T12:50:33;8.55;;;7.72;;
8580;SDS011;4328;48.622;9.230;2023-02-15T12:53:05;8.23;;;7.50;;
8580;SDS011;4328;48.622;9.230;2023-02-15T12:55:32;9.05;;;8.30;;
8580;SDS011;4328;48.622;9.230;2023-02-15T12:58:05;8.55;;;7.75;;
8580;SDS011;4328;48.622;9.230;2023-02-15T13:00:32;10.95;;;8.35;;
8580;SDS011;4328;48.622;9.230;2023-02-15T13:03:01;10.30;;;9.30;;
8580;SDS011;4328;48.622;9.230;2023-02-15T13:05:30;10.52;;;9.35;;
8580;SDS011;4328;48.622;9.230;2023-02-15T13:07:57;10.50;;;9.60;;
8580;SDS011;4328;48.622;9.230;2023-02-15T13:10:25;11.05;;;10.00;;
8580;SDS011;4328;48.622;9.230;2023-02-15T13:12:53;10.40;;;9.50;;
8580;SDS011;4328;48.622;9.230;2023-02-15T13:15:27;10.82;;;9.75;;
8580;SDS011;4328;48.622;9.230;2023-02-15T13:17:55;11.30;;;9.98;;
8580;SDS011;4328;48.622;9.230;2023-02-15T13:20:23;11.15;;;10.02;;
8580;SDS011;4328;48.622;9.230;2023-02-15T13:22:52;11.85;;;10.05;;
8580;SDS011;4328;48.622;9.230;2023-02-15T13:25:20;10.57;;;9.48;;
8580;SDS011;4328;48.622;9.230;2023-02-15T13:27:48;11.80;;;10.38;;
8580;SDS011;4328;48.622;9.230;2023-02-15T13:30:20;10.30;;;9.30;;
8580;SDS011;4328;48.622;9.230;2023-02-15T13:32:48;9.82;;;8.93;;
8580;SDS011;4328;48.622;9.230;2023-02-15T13:35:16;10.23;;;9.32;;
8580;SDS011;4328;48.622;9.230;2023-02-15T13:40:33;9.75;;;8.60;;
8580;SDS011;4328;48.622;9.230;2023-02-15T13:43:02;14.40;;;9.88;;
8580;SDS011;4328;48.622;9.230;2023-02-15T13:45:36;10.90;;;9.40;;
8580;SDS011;4328;48.622;9.230;2023-02-15T13:48:08;9.48;;;8.50;;
8580;SDS011;4328;48.622;9.230;2023-02-15T13:50:45;8.32;;;7.63;;
8580;SDS011;4328;48.622;9.230;2023-02-15T13:53:18;7.82;;;6.93;;
8580;SDS011;4328;48.622;9.230;2023-02-15T13:55:50;10.10;;;6.45;;
8580;SDS011;4328;48.622;9.230;2023-02-15T13:58:31;8.23;;;7.47;;
8580;SDS011;4328;48.622;9.230;2023-02-15T14:01:04;7.68;;;6.90;;
8580;SDS011;4328;48.622;9.230;2023-02-15T14:06:38;10.23;;;9.25;;
8580;SDS011;4328;48.622;9.230;2023-02-15T14:09:12;14.52;;;12.15;;
8580;SDS011;4328;48.622;9.230;2023-02-15T14:11:44;17.38;;;15.65;;
8580;SDS011;4328;48.622;9.230;2023-02-15T14:14:23;11.20;;;10.10;;
8580;SDS011;4328;48.622;9.230;2023-02-15T14:16:53;11.52;;;10.50;;
8580;SDS011;4328;48.622;9.230;2023-02-15T14:19:22;11.77;;;10.57;;
8580;SDS011;4328;48.622;9.230;2023-02-15T14:21:53;14.57;;;10.63;;
8580;SDS011;4328;48.622;9.230;2023-02-15T14:24:27;12.32;;;10.43;;
8580;SDS011;4328;48.622;9.230;2023-02-15T14:26:59;11.13;;;10.13;;
8580;SDS011;4328;48.622;9.230;2023-02-15T14:29:33;11.75;;;10.68;;
8580;SDS011;4328;48.622;9.230;2023-02-15T14:32:07;11.65;;;10.43;;
8580;SDS011;4328;48.622;9.230;2023-02-15T14:34:37;10.20;;;9.20;;
8580;SDS011;4328;48.622;9.230;2023-02-15T14:37:08;10.15;;;9.10;;
8580;SDS011;4328;48.622;9.230;2023-02-15T14:39:41;9.57;;;8.77;;
8580;SDS011;4328;48.622;9.230;2023-02-15T14:42:28;12.23;;;11.02;;
8580;SDS011;4328;48.622;9.230;2023-02-15T14:44:58;10.15;;;9.15;;
8580;SDS011;4328;48.622;9.230;2023-02-15T14:47:28;12.57;;;11.48;;
8580;SDS011;4328;48.622;9.230;2023-02-15T14:49:58;11.80;;;8.98;;
8580;SDS011;4328;48.622;9.230;2023-02-15T14:52:24;9.48;;;8.48;;
8580;SDS011;4328;48.622;9.230;2023-02-15T14:54:59;8.50;;;7.70;;
8580;SDS011;4328;48.622;9.230;2023-02-15T14:57:34;8.30;;;7.50;;
8580;SDS011;4328;48.622;9.230;2023-02-15T15:00:02;9.40;;;7.27;;
8580;SDS011;4328;48.622;9.230;2023-02-15T15:02:42;9.02;;;7.40;;
8580;SDS011;4328;48.622;9.230;2023-02-15T15:05:13;8.10;;;7.28;;
8580;SDS011;4328;48.622;9.230;2023-02-15T15:07:42;7.67;;;6.97;;
8580;SDS011;4328;48.622;9.230;2023-02-15T15:12:56;7.60;;;6.80;;
8580;SDS011;4328;48.622;9.230;2023-02-15T15:15:32;11.23;;;7.03;;
8580;SDS011;4328;48.622;9.230;2023-02-15T15:17:59;8.43;;;6.77;;
8580;SDS011;4328;48.622;9.230;2023-02-15T15:20:43;9.60;;;8.00;;